createdAt,value
2022-10-22T00:01:03.060Z,14.31
2022-10-22T00:03:31.263Z,14.31
2022-10-22T00:05:59.321Z,14.31
2022-10-22T00:08:27.311Z,14.27
2022-10-22T00:10:55.288Z,14.28
2022-10-22T00:13:24.730Z,14.29
2022-10-22T00:15:52.710Z,14.30
2022-10-22T00:18:20.699Z,14.29
2022-10-22T00:20:48.647Z,14.26
2022-10-22T00:23:16.596Z,14.24
2022-10-22T00:25:44.557Z,14.18
2022-10-22T00:28:12.618Z,14.06
2022-10-22T00:30:42.042Z,13.96
2022-10-22T00:33:09.953Z,13.91
2022-10-22T00:35:37.935Z,13.90
2022-10-22T00:38:05.920Z,13.88
2022-10-22T00:40:35.959Z,13.89
2022-10-22T00:43:03.963Z,13.94
2022-10-22T00:45:32.114Z,14.01
2022-10-22T00:48:05.919Z,14.10
2022-10-22T00:50:37.135Z,14.01
2022-10-22T00:53:07.824Z,14.03
2022-10-22T00:55:36.409Z,13.98
2022-10-22T00:58:05.273Z,13.91
2022-10-22T01:00:33.423Z,13.97
2022-10-22T01:03:03.535Z,14.01
2022-10-22T01:05:39.794Z,13.96
2022-10-22T01:08:14.301Z,13.89
2022-10-22T01:10:54.412Z,13.83
2022-10-22T01:13:34.064Z,13.79
2022-10-22T01:16:10.019Z,13.76
2022-10-22T01:18:49.050Z,13.88
2022-10-22T01:21:24.271Z,13.87
2022-10-22T01:24:29.783Z,13.83
2022-10-22T01:27:25.908Z,13.87
2022-10-22T01:29:59.669Z,13.92
2022-10-22T01:32:31.451Z,14.03
2022-10-22T01:35:03.830Z,13.96
2022-10-22T01:37:36.269Z,13.87
2022-10-22T01:40:06.609Z,13.86
2022-10-22T01:42:34.648Z,13.85
2022-10-22T01:45:04.114Z,13.91
2022-10-22T01:47:44.264Z,13.91
2022-10-22T01:50:37.038Z,13.87
2022-10-22T01:53:19.269Z,13.98
2022-10-22T01:55:58.120Z,13.95
2022-10-22T01:58:39.418Z,13.91
2022-10-22T02:01:16.716Z,13.94
2022-10-22T02:03:52.492Z,13.91
2022-10-22T02:06:24.682Z,13.96
2022-10-22T02:08:54.315Z,13.99
2022-10-22T02:11:22.798Z,13.99
2022-10-22T02:13:54.420Z,14.01
2022-10-22T02:16:29.621Z,14.03
2022-10-22T02:19:01.977Z,14.10
2022-10-22T02:21:30.223Z,14.10
2022-10-22T02:23:58.509Z,14.08
2022-10-22T02:26:33.706Z,14.12
2022-10-22T02:29:07.887Z,14.08
2022-10-22T02:31:41.796Z,14.03
2022-10-22T02:34:14.142Z,14.05
2022-10-22T02:36:48.079Z,14.02
2022-10-22T02:39:20.292Z,14.02
2022-10-22T02:41:48.811Z,14.02
2022-10-22T02:44:16.793Z,13.99
2022-10-22T02:46:46.115Z,13.96
2022-10-22T02:49:14.337Z,13.89
2022-10-22T02:51:42.268Z,13.91
2022-10-22T02:54:10.310Z,13.94
2022-10-22T02:56:38.336Z,13.93
2022-10-22T02:59:06.273Z,13.92
2022-10-22T03:01:34.335Z,13.81
2022-10-22T03:04:03.638Z,13.80
2022-10-22T03:06:33.265Z,13.79
2022-10-22T03:09:01.264Z,13.78
2022-10-22T03:11:29.274Z,13.80
2022-10-22T03:13:57.210Z,13.76
2022-10-22T03:16:25.149Z,13.75
2022-10-22T03:18:53.103Z,13.86
2022-10-22T03:21:32.924Z,13.87
2022-10-22T03:24:02.701Z,13.85
2022-10-22T03:26:30.909Z,13.91
2022-10-22T03:29:00.871Z,13.81
2022-10-22T03:31:28.830Z,13.78
2022-10-22T03:33:56.823Z,13.80
2022-10-22T03:36:26.913Z,13.80
2022-10-22T03:38:55.312Z,13.84
2022-10-22T03:41:23.618Z,13.78
2022-10-22T03:43:53.207Z,13.76
2022-10-22T03:46:21.539Z,13.79
2022-10-22T03:48:49.513Z,13.73
2022-10-22T03:51:17.396Z,13.78
2022-10-22T03:53:46.869Z,13.76
2022-10-22T03:56:15.477Z,13.72
2022-10-22T03:58:43.431Z,13.69
2022-10-22T04:01:13.534Z,13.67
2022-10-22T04:03:42.005Z,13.66
2022-10-22T04:06:12.395Z,13.68
2022-10-22T04:08:41.556Z,13.66
2022-10-22T04:11:12.188Z,13.70
2022-10-22T04:13:40.664Z,13.73
2022-10-22T04:16:10.462Z,13.73
2022-10-22T04:18:39.403Z,13.81
2022-10-22T04:21:08.650Z,13.82
2022-10-22T04:23:36.817Z,13.82
2022-10-22T04:26:06.962Z,13.75
2022-10-22T04:28:36.898Z,13.76
2022-10-22T04:31:09.450Z,13.75
2022-10-22T04:33:37.540Z,13.72
2022-10-22T04:36:10.331Z,13.71
2022-10-22T04:38:38.348Z,13.76
2022-10-22T04:41:11.274Z,13.75
2022-10-22T04:43:40.752Z,13.76
2022-10-22T04:46:09.441Z,13.72
2022-10-22T04:48:37.612Z,13.75
2022-10-22T04:51:06.665Z,13.71
2022-10-22T04:53:35.566Z,13.73
2022-10-22T04:56:11.424Z,13.70
2022-10-22T04:58:41.035Z,13.68
2022-10-22T05:01:14.069Z,13.68
2022-10-22T05:03:42.250Z,13.68
2022-10-22T05:06:10.895Z,13.65
2022-10-22T05:08:40.266Z,13.76
2022-10-22T05:11:16.335Z,13.78
2022-10-22T05:13:46.020Z,13.78
2022-10-22T05:16:15.116Z,13.80
2022-10-22T05:18:43.945Z,13.76
2022-10-22T05:21:13.939Z,13.78
2022-10-22T05:23:41.962Z,13.75
2022-10-22T05:26:11.298Z,13.69
2022-10-22T05:28:40.043Z,13.58
2022-10-22T05:31:11.704Z,13.58
2022-10-22T05:33:40.198Z,13.47
2022-10-22T05:36:10.017Z,13.50
2022-10-22T05:38:38.048Z,13.34
2022-10-22T05:41:08.601Z,13.43
2022-10-22T05:43:40.659Z,13.37
2022-10-22T05:46:18.688Z,13.33
2022-10-22T05:48:58.338Z,13.34
2022-10-22T05:51:32.473Z,13.31
2022-10-22T05:54:03.871Z,13.40
2022-10-22T05:56:41.221Z,13.33
2022-10-22T05:59:24.978Z,13.31
2022-10-22T06:02:10.400Z,13.31
2022-10-22T06:04:41.465Z,13.37
2022-10-22T06:07:23.158Z,13.47
2022-10-22T06:09:51.468Z,13.51
2022-10-22T06:12:21.856Z,13.56
2022-10-22T06:14:55.676Z,13.60
2022-10-22T06:17:25.102Z,13.75
2022-10-22T06:19:53.048Z,13.80
2022-10-22T06:22:21.037Z,13.85
2022-10-22T06:24:48.961Z,13.95
2022-10-22T06:27:24.885Z,14.10
2022-10-22T06:29:55.635Z,14.26
2022-10-22T06:32:25.065Z,14.34
2022-10-22T06:34:52.991Z,14.46
2022-10-22T06:37:20.910Z,14.62
2022-10-22T06:39:48.902Z,14.81
2022-10-22T06:42:16.848Z,14.99
2022-10-22T06:44:48.940Z,15.26
2022-10-22T06:47:16.928Z,15.74
2022-10-22T06:49:46.271Z,16.21
2022-10-22T06:52:14.309Z,16.59
2022-10-22T06:54:42.260Z,16.68
2022-10-22T06:57:10.291Z,16.70
2022-10-22T06:59:38.677Z,16.77
2022-10-22T07:02:06.589Z,17.00
2022-10-22T07:04:34.512Z,17.19
2022-10-22T07:07:03.880Z,17.51
2022-10-22T07:09:31.855Z,17.79
2022-10-22T07:11:59.730Z,18.11
2022-10-22T07:14:27.649Z,18.21
2022-10-22T07:16:55.696Z,18.39
2022-10-22T07:19:23.925Z,18.72
2022-10-22T07:21:51.893Z,18.91
2022-10-22T07:24:21.216Z,19.06
2022-10-22T07:26:50.102Z,19.32
2022-10-22T07:29:17.851Z,19.64
2022-10-22T07:31:46.537Z,19.79
2022-10-22T07:34:14.619Z,19.97
2022-10-22T07:36:42.697Z,20.07
2022-10-22T07:39:10.663Z,20.42
2022-10-22T07:41:39.974Z,20.98
2022-10-22T07:44:07.998Z,21.15
2022-10-22T07:46:36.326Z,21.09
2022-10-22T07:49:04.271Z,21.44
2022-10-22T07:51:32.236Z,21.77
2022-10-22T07:54:00.176Z,22.36
2022-10-22T07:56:28.114Z,22.56
2022-10-22T07:58:57.469Z,22.40
2022-10-22T08:01:25.447Z,22.14
2022-10-22T08:03:54.073Z,22.22
2022-10-22T08:06:21.816Z,22.54
2022-10-22T08:08:49.777Z,22.87
2022-10-22T08:11:17.815Z,23.13
2022-10-22T08:13:46.014Z,23.45
2022-10-22T08:16:15.756Z,23.73
2022-10-22T08:18:43.800Z,23.94
2022-10-22T08:21:11.868Z,23.51
2022-10-22T08:23:40.030Z,23.35
2022-10-22T08:26:08.029Z,23.16
2022-10-22T08:28:37.245Z,22.94
2022-10-22T08:31:06.214Z,22.75
2022-10-22T08:33:35.732Z,22.54
2022-10-22T08:36:03.791Z,22.26
2022-10-22T08:38:32.423Z,21.95
2022-10-22T08:41:04.535Z,21.85
2022-10-22T08:44:08.246Z,22.40
2022-10-22T08:47:02.488Z,23.31
2022-10-22T08:49:38.417Z,24.08
2022-10-22T08:52:13.734Z,24.65
2022-10-22T08:54:51.777Z,24.74
2022-10-22T08:57:33.145Z,24.46
2022-10-22T09:00:06.149Z,24.41
2022-10-22T09:02:53.828Z,24.44
2022-10-22T09:05:35.339Z,25.45
2022-10-22T09:08:03.530Z,25.17
2022-10-22T09:10:36.484Z,25.75
2022-10-22T09:13:04.526Z,26.57
2022-10-22T09:15:32.539Z,26.87
2022-10-22T09:18:12.482Z,27.46
2022-10-22T09:20:50.563Z,27.75
2022-10-22T09:23:30.254Z,28.32
2022-10-22T09:25:59.057Z,28.53
2022-10-22T09:28:35.798Z,28.48
2022-10-22T09:31:13.133Z,28.03
2022-10-22T09:33:42.998Z,28.64
2022-10-22T09:36:16.715Z,29.21
2022-10-22T09:38:48.943Z,29.28
2022-10-22T09:41:17.929Z,28.72
2022-10-22T09:43:48.314Z,28.63
2022-10-22T09:46:19.776Z,28.67
2022-10-22T09:48:51.317Z,28.47
2022-10-22T09:51:23.039Z,28.59
2022-10-22T09:53:58.327Z,28.69
2022-10-22T09:56:29.206Z,28.47
2022-10-22T09:58:58.564Z,28.01
2022-10-22T10:01:28.640Z,27.48
2022-10-22T10:04:09.414Z,26.95
2022-10-22T10:06:41.985Z,26.51
2022-10-22T10:09:17.175Z,26.23
2022-10-22T10:11:52.232Z,25.93
2022-10-22T10:14:27.849Z,25.66
2022-10-22T10:17:04.253Z,25.35
2022-10-22T10:19:47.065Z,25.30
2022-10-22T10:22:32.491Z,25.03
2022-10-22T10:25:25.208Z,24.86
2022-10-22T10:28:02.430Z,24.68
2022-10-22T10:30:32.267Z,24.59
2022-10-22T10:33:12.914Z,24.59
2022-10-22T10:35:55.125Z,24.51
2022-10-22T10:38:39.486Z,24.31
2022-10-22T10:41:20.087Z,24.35
2022-10-22T10:44:04.081Z,24.29
2022-10-22T10:46:39.142Z,24.24
2022-10-22T10:49:11.182Z,24.15
2022-10-22T10:51:48.039Z,23.98
2022-10-22T10:54:28.587Z,23.88
2022-10-22T10:56:59.733Z,23.89
2022-10-22T10:59:43.800Z,23.94
2022-10-22T11:02:41.227Z,23.87
2022-10-22T11:05:31.831Z,23.80
2022-10-22T11:08:04.412Z,23.85
2022-10-22T11:10:40.254Z,24.06
2022-10-22T11:13:15.438Z,24.13
2022-10-22T11:15:47.783Z,24.13
2022-10-22T11:18:22.178Z,24.22
2022-10-22T11:21:08.399Z,24.50
2022-10-22T11:23:42.885Z,24.47
2022-10-22T11:26:18.881Z,24.42
2022-10-22T11:28:50.990Z,24.41
2022-10-22T11:31:20.248Z,24.44
2022-10-22T11:34:00.547Z,24.56
2022-10-22T11:36:39.952Z,24.91
2022-10-22T11:39:08.013Z,25.02
2022-10-22T11:41:38.160Z,25.07
2022-10-22T11:44:22.694Z,25.23
2022-10-22T11:46:57.542Z,25.40
2022-10-22T11:49:28.911Z,25.69
2022-10-22T11:52:24.309Z,25.66
2022-10-22T11:54:57.731Z,25.71
2022-10-22T11:57:38.143Z,25.76
2022-10-22T12:00:13.908Z,25.91
2022-10-22T12:02:44.870Z,26.23
2022-10-22T12:05:35.265Z,26.21
2022-10-22T12:08:23.591Z,26.00
2022-10-22T12:10:56.791Z,25.82
2022-10-22T12:13:28.999Z,25.71
2022-10-22T12:16:00.034Z,25.58
2022-10-22T12:18:40.455Z,25.74
2022-10-22T12:21:13.142Z,26.07
2022-10-22T12:23:41.677Z,25.96
2022-10-22T12:26:23.790Z,25.94
2022-10-22T12:28:58.456Z,26.35
2022-10-22T12:31:26.598Z,26.67
2022-10-22T12:33:58.541Z,26.94
2022-10-22T12:36:27.926Z,26.87
2022-10-22T12:38:55.898Z,26.92
2022-10-22T12:41:33.773Z,27.18
2022-10-22T12:44:05.570Z,26.86
2022-10-22T12:46:35.817Z,26.68
2022-10-22T12:49:07.051Z,26.38
2022-10-22T12:51:35.164Z,26.17
2022-10-22T12:54:07.881Z,26.10
2022-10-22T12:56:38.116Z,26.13
2022-10-22T12:59:15.974Z,26.09
2022-10-22T13:01:45.169Z,26.07
2022-10-22T13:04:22.457Z,26.07
2022-10-22T13:06:52.483Z,26.14
2022-10-22T13:09:25.225Z,26.12
2022-10-22T13:11:58.242Z,26.02
2022-10-22T13:14:32.566Z,26.06
2022-10-22T13:17:09.931Z,26.00
2022-10-22T13:19:49.304Z,25.86
2022-10-22T13:22:39.192Z,25.68
2022-10-22T13:25:22.795Z,25.75
2022-10-22T13:27:52.927Z,26.06
2022-10-22T13:30:27.508Z,26.00
2022-10-22T13:32:58.533Z,26.09
2022-10-22T13:35:29.155Z,26.11
2022-10-22T13:37:57.674Z,26.03
2022-10-22T13:40:25.507Z,26.01
2022-10-22T13:42:53.824Z,25.89
2022-10-22T13:45:23.525Z,25.85
2022-10-22T13:47:54.348Z,25.72
2022-10-22T13:50:23.068Z,25.64
2022-10-22T13:52:53.722Z,25.58
2022-10-22T13:55:25.534Z,25.53
2022-10-22T13:57:56.227Z,25.48
2022-10-22T14:00:26.215Z,25.46
2022-10-22T14:02:59.058Z,25.35
2022-10-22T14:05:27.500Z,25.44
2022-10-22T14:07:55.468Z,25.53
2022-10-22T14:10:25.255Z,25.44
2022-10-22T14:12:54.418Z,25.53
2022-10-22T14:15:26.617Z,25.65
2022-10-22T14:17:57.328Z,25.81
2022-10-22T14:20:27.650Z,25.82
2022-10-22T14:22:55.988Z,25.76
2022-10-22T14:25:25.817Z,25.79
2022-10-22T14:27:54.015Z,25.67
2022-10-22T14:30:24.107Z,25.52
2022-10-22T14:32:53.820Z,25.47
2022-10-22T14:35:23.729Z,25.37
2022-10-22T14:37:52.076Z,25.14
2022-10-22T14:40:21.938Z,25.00
2022-10-22T14:42:50.300Z,24.86
2022-10-22T14:45:21.025Z,24.70
2022-10-22T14:47:49.420Z,24.62
2022-10-22T14:50:19.093Z,24.57
2022-10-22T14:52:47.312Z,24.42
2022-10-22T14:55:17.366Z,24.50
2022-10-22T14:57:45.867Z,24.27
2022-10-22T15:00:15.057Z,24.31
2022-10-22T15:02:43.488Z,24.20
2022-10-22T15:05:12.332Z,24.10
2022-10-22T15:07:41.642Z,23.93
2022-10-22T15:10:11.181Z,23.83
2022-10-22T15:12:39.131Z,23.71
2022-10-22T15:15:08.567Z,23.62
2022-10-22T15:17:36.504Z,23.51
2022-10-22T15:20:05.611Z,23.37
2022-10-22T15:22:35.345Z,23.22
2022-10-22T15:25:08.008Z,23.10
2022-10-22T15:27:36.496Z,22.93
2022-10-22T15:30:05.437Z,22.86
2022-10-22T15:32:34.139Z,22.81
2022-10-22T15:35:02.372Z,22.68
2022-10-22T15:37:30.883Z,22.56
2022-10-22T15:40:00.482Z,22.48
2022-10-22T15:42:29.846Z,22.35
2022-10-22T15:44:59.769Z,22.31
2022-10-22T15:47:29.627Z,22.20
2022-10-22T15:49:58.538Z,22.06
2022-10-22T15:52:26.539Z,21.94
2022-10-22T15:54:54.660Z,21.85
2022-10-22T15:57:22.575Z,21.82
2022-10-22T15:59:52.170Z,21.74
2022-10-22T16:02:20.269Z,21.63
2022-10-22T16:04:48.276Z,21.52
2022-10-22T16:07:17.330Z,21.45
2022-10-22T16:09:46.882Z,21.35
2022-10-22T16:12:17.193Z,21.28
2022-10-22T16:14:45.519Z,21.22
2022-10-22T16:17:14.853Z,21.04
2022-10-22T16:19:43.792Z,20.89
2022-10-22T16:22:16.624Z,20.92
2022-10-22T16:24:47.137Z,20.96
2022-10-22T16:27:15.064Z,20.95
2022-10-22T16:29:44.903Z,20.83
2022-10-22T16:32:16.187Z,20.68
2022-10-22T16:34:46.229Z,20.59
2022-10-22T16:37:14.201Z,20.55
2022-10-22T16:39:45.804Z,20.47
2022-10-22T16:42:13.882Z,20.40
2022-10-22T16:44:44.254Z,20.33
2022-10-22T16:47:20.299Z,20.22
2022-10-22T16:50:07.073Z,20.11
2022-10-22T16:52:37.095Z,20.08
2022-10-22T16:55:27.415Z,20.07
2022-10-22T16:58:09.962Z,20.02
2022-10-22T17:00:42.243Z,19.98
2022-10-22T17:03:16.421Z,19.90
2022-10-22T17:05:56.710Z,19.84
2022-10-22T17:08:25.035Z,19.71
2022-10-22T17:10:56.539Z,19.61
2022-10-22T17:13:31.989Z,19.47
2022-10-22T17:16:10.149Z,19.46
2022-10-22T17:21:19.721Z,19.19
2022-10-22T17:23:49.167Z,19.10
2022-10-22T17:26:22.971Z,18.98
2022-10-22T17:28:51.407Z,18.90
2022-10-22T17:31:21.320Z,18.89
2022-10-22T17:33:51.686Z,18.83
2022-10-22T17:36:22.517Z,18.80
2022-10-22T17:38:52.491Z,18.81
2022-10-22T17:41:28.377Z,18.86
2022-10-22T17:43:59.319Z,18.87
2022-10-22T17:46:29.796Z,18.86
2022-10-22T17:49:06.951Z,18.84
2022-10-22T17:51:40.536Z,18.77
2022-10-22T17:54:10.327Z,18.68
2022-10-22T17:56:44.356Z,18.63
2022-10-22T17:59:14.528Z,18.65
2022-10-22T18:01:45.739Z,18.58
2022-10-22T18:04:19.255Z,18.51
2022-10-22T18:06:48.053Z,18.53
2022-10-22T18:09:18.531Z,18.56
2022-10-22T18:11:47.883Z,18.64
2022-10-22T18:14:16.066Z,18.69
2022-10-22T18:16:43.975Z,18.66
2022-10-22T18:19:13.608Z,18.72
2022-10-22T18:21:42.966Z,18.75
2022-10-22T18:24:11.463Z,18.73
2022-10-22T18:26:39.396Z,18.73
2022-10-22T18:29:07.687Z,18.76
2022-10-22T18:31:35.638Z,18.76
2022-10-22T18:34:03.537Z,18.73
2022-10-22T18:36:31.490Z,18.71
2022-10-22T18:39:02.275Z,18.69
2022-10-22T18:41:32.054Z,18.69
2022-10-22T18:44:02.414Z,18.72
2022-10-22T18:46:31.711Z,18.73
2022-10-22T18:49:00.263Z,18.78
2022-10-22T18:51:31.697Z,18.73
2022-10-22T18:54:05.685Z,18.65
2022-10-22T18:56:46.075Z,18.62
2022-10-22T18:59:17.987Z,18.62
2022-10-22T19:01:45.955Z,18.62
2022-10-22T19:04:14.907Z,18.65
2022-10-22T19:06:45.331Z,18.62
2022-10-22T19:09:15.282Z,18.58
2022-10-22T19:11:43.827Z,18.69
2022-10-22T19:14:11.938Z,18.74
2022-10-22T19:16:39.961Z,18.69
2022-10-22T19:19:08.988Z,18.70
2022-10-22T19:21:37.981Z,18.70
2022-10-22T19:24:06.834Z,18.71
2022-10-22T19:26:36.086Z,18.70
2022-10-22T19:29:04.445Z,18.68
2022-10-22T19:31:32.674Z,18.65
2022-10-22T19:34:02.859Z,18.52
2022-10-22T19:36:32.713Z,18.47
2022-10-22T19:39:01.798Z,18.43
2022-10-22T19:41:30.280Z,18.37
2022-10-22T19:44:01.040Z,18.34
2022-10-22T19:46:32.486Z,18.27
2022-10-22T19:49:00.801Z,18.26
2022-10-22T19:51:30.880Z,18.20
2022-10-22T19:54:00.359Z,18.06
2022-10-22T19:56:28.883Z,18.00
2022-10-22T19:58:57.018Z,17.97
2022-10-22T20:01:26.729Z,17.93
2022-10-22T20:03:55.197Z,17.95
2022-10-22T20:06:23.161Z,17.84
2022-10-22T20:08:55.198Z,17.79
2022-10-22T20:11:27.076Z,17.84
2022-10-22T20:13:56.592Z,17.78
2022-10-22T20:16:28.641Z,17.70
2022-10-22T20:19:00.136Z,17.68
2022-10-22T20:21:28.936Z,17.53
2022-10-22T20:23:57.866Z,17.45
2022-10-22T20:26:28.091Z,17.34
2022-10-22T20:28:56.992Z,17.39
2022-10-22T20:31:29.271Z,17.29
2022-10-22T20:33:58.981Z,17.32
2022-10-22T20:36:28.542Z,17.26
2022-10-22T20:39:00.856Z,17.16
2022-10-22T20:41:28.971Z,17.20
2022-10-22T20:43:56.971Z,17.23
2022-10-22T20:46:29.100Z,17.08
2022-10-22T20:49:00.320Z,17.00
2022-10-22T20:51:28.380Z,16.99
2022-10-22T20:53:56.477Z,16.97
2022-10-22T20:56:24.988Z,16.81
2022-10-22T20:59:04.006Z,16.77
2022-10-22T21:01:35.078Z,16.79
2022-10-22T21:04:03.074Z,16.70
2022-10-22T21:06:31.255Z,16.65
2022-10-22T21:08:59.307Z,16.52
2022-10-22T21:11:27.343Z,16.52
2022-10-22T21:13:55.307Z,16.49
2022-10-22T21:16:23.222Z,16.47
2022-10-22T21:18:52.616Z,16.45
2022-10-22T21:21:20.535Z,16.33
2022-10-22T21:23:50.220Z,16.31
2022-10-22T21:26:18.926Z,16.27
2022-10-22T21:28:47.525Z,16.28
2022-10-22T21:31:22.032Z,16.34
2022-10-22T21:33:52.031Z,16.32
2022-10-22T21:36:23.019Z,16.19
2022-10-22T21:38:51.854Z,16.14
2022-10-22T21:41:21.600Z,16.17
2022-10-22T21:43:49.799Z,16.21
2022-10-22T21:46:19.490Z,16.20
2022-10-22T21:48:48.003Z,16.18
2022-10-22T21:51:19.214Z,16.20
2022-10-22T21:53:48.066Z,16.21
2022-10-22T21:56:17.215Z,16.03
2022-10-22T21:58:45.474Z,16.06
2022-10-22T22:01:14.737Z,16.03
2022-10-22T22:03:43.903Z,16.03
2022-10-22T22:06:12.474Z,15.98
2022-10-22T22:08:42.229Z,15.98
2022-10-22T22:11:12.316Z,15.97
2022-10-22T22:13:40.881Z,15.90
2022-10-22T22:16:11.227Z,15.92
2022-10-22T22:18:40.320Z,15.78
2022-10-22T22:21:11.313Z,15.76
2022-10-22T22:23:42.004Z,15.69
2022-10-22T22:26:10.695Z,15.57
2022-10-22T22:28:38.858Z,15.58
2022-10-22T22:31:14.346Z,15.55
2022-10-22T22:33:42.332Z,15.55
2022-10-22T22:36:10.960Z,15.53
2022-10-22T22:38:39.400Z,15.61
2022-10-22T22:41:09.286Z,15.56
2022-10-22T22:43:37.616Z,15.45
2022-10-22T22:46:08.311Z,15.38
2022-10-22T22:48:36.530Z,15.39
2022-10-22T22:51:05.173Z,15.39
2022-10-22T22:53:34.222Z,15.38
2022-10-22T22:56:10.475Z,15.33
2022-10-22T22:58:40.496Z,15.25
2022-10-22T23:01:13.609Z,15.12
2022-10-22T23:03:41.979Z,15.13
2022-10-22T23:06:10.827Z,15.15
2022-10-22T23:08:39.116Z,15.16
2022-10-22T23:11:10.881Z,14.99
2022-10-22T23:13:40.306Z,14.90
2022-10-22T23:16:09.953Z,14.77
2022-10-22T23:18:37.925Z,14.76
2022-10-22T23:21:06.916Z,14.75
2022-10-22T23:23:35.228Z,14.77
2022-10-22T23:26:03.376Z,14.71
2022-10-22T23:28:32.756Z,14.71
2022-10-22T23:31:00.743Z,14.74
2022-10-22T23:33:28.630Z,14.56
2022-10-22T23:35:56.605Z,14.51
2022-10-22T23:38:24.680Z,14.47
2022-10-22T23:40:56.533Z,14.46
2022-10-22T23:43:24.678Z,14.43
2022-10-22T23:45:54.364Z,14.31
2022-10-22T23:48:23.149Z,14.26
2022-10-22T23:53:19.177Z,14.29
2022-10-22T23:55:47.146Z,14.24
2022-10-22T23:58:15.245Z,14.21
